Whitehaven, United Kingdom
Current Conditions -  °F | °C
As of 8:20 AM on Saturday 29 Nov 2014 (Local Time) from EGNS Reporting Station
Overcast Overcast  
Wind Chill: 11°   Ceiling: 1100
Heat Index: 11°   Visibility: 6mi
Dew Point: 10°   Wind: 17mph
Humidity: 94%   Direction: 100°E
Pressure: 29.8"   Gusts: NA
Location:  54.55°N, 3.59°W
Report Text: EGNS 290820Z 10015KT 9000 FEW007 OVC011 11/10 Q1009 NOSIG
Loading
Personal Weather Stations






























Interactive Weather Map New forecast layout! Learn more

10-Day Weather Forecast

Advertisements
Track Severe Weather on mobile